This is the latest recevied weather packets stored in our database for station/object KE8WMS. If no packets are shown the sender has not sent any weather packets the latest 10 day(s).
| Time | Temp. | Humidity | Pressure | Rain* | Wind** | Luminosity | Snow |
|---|---|---|---|---|---|---|---|
| 1777991893 | 19.44° C | 64% | 1002.1 hPa | 0 mm | - | 453 W/m² | - |
| 1777991591 | 19.44° C | 66% | 1002.1 hPa | 0 mm | - | 467 W/m² | - |
| 1777991288 | 18.33° C | 67% | 1001.9 hPa | 0 mm | - | 438 W/m² | - |
| 1777990986 | 18.33° C | 67% | 1002.2 hPa | 0 mm | - | 180 W/m² | - |
| 1777990683 | 18.89° C | 66% | 1002.3 hPa | 0 mm | - | 217 W/m² | - |
| 1777990380 | 18.89° C | 67% | 1001.9 hPa | 0 mm | - | 448 W/m² | - |
| 1777990075 | 18.89° C | 68% | 1001.9 hPa | 0 mm | - | 430 W/m² | - |
| 1777989772 | 18.89° C | 68% | 1002 hPa | 0 mm | - | 307 W/m² | - |
| 1777989470 | 18.89° C | 67% | 1001.6 hPa | 0 mm | - | 381 W/m² | - |
| 1777989166 | 18.89° C | 70% | 1001.4 hPa | 0 mm | - | 414 W/m² | - |
| 1777988862 | 18.89° C | 70% | 1001.4 hPa | 0 mm | - | 204 W/m² | - |
| 1777988560 | 18.89° C | 72% | 1001.6 hPa | 0 mm | - | 149 W/m² | - |
| 1777988256 | 18.33° C | 71% | 1001.7 hPa | 0 mm | - | 115 W/m² | - |
| 1777987952 | 18.33° C | 73% | 1001.6 hPa | 0 mm | - | 98 W/m² | - |
| 1777987648 | 17.78° C | 73% | 1001.6 hPa | 0 mm | - | 91 W/m² | - |
| 1777987346 | 17.78° C | 74% | 1001.3 hPa | 0 mm | - | 103 W/m² | - |
| 1777987043 | 17.22° C | 74% | 1001.6 hPa | 0 mm | - | 72 W/m² | - |
| 1777986740 | 17.22° C | 74% | 1001.4 hPa | 0 mm | - | 112 W/m² | - |
| 1777986438 | 17.22° C | 75% | 1001.5 hPa | 0 mm | - | 116 W/m² | - |
| 1777986136 | 17.22° C | 74% | 1001.8 hPa | 0 mm | - | 113 W/m² | - |
| 1777985832 | 17.22° C | 74% | 1001.9 hPa | 0 mm | - | 110 W/m² | - |
| 1777985530 | 17.22° C | 73% | 1001.9 hPa | 0 mm | - | 112 W/m² | - |
| 1777985227 | 17.22° C | 73% | 1001.8 hPa | 0 mm | - | 101 W/m² | - |
| 1777984923 | 16.67° C | 73% | 1001.6 hPa | 0 mm | - | 80 W/m² | - |
| 1777984619 | 16.67° C | 73% | 1001.7 hPa | 0 mm | - | 63 W/m² | - |
* Rain latest hour (hover to see other rain measurements)
** Current wind speed in m/s (hover to see current wind gust speed)